sensor_id;sensor_type;location;lat;lon;timestamp;P1;durP1;ratioP1;P2;durP2;ratioP2
11443;SDS011;5778;47.856;12.154;2023-07-31T00:00:23;3.97;;;2.13;;
11443;SDS011;5778;47.856;12.154;2023-07-31T00:02:49;3.67;;;2.07;;
11443;SDS011;5778;47.856;12.154;2023-07-31T00:05:17;1.90;;;1.80;;
11443;SDS011;5778;47.856;12.154;2023-07-31T00:07:44;2.03;;;1.80;;
11443;SDS011;5778;47.856;12.154;2023-07-31T00:10:12;2.10;;;1.90;;
11443;SDS011;5778;47.856;12.154;2023-07-31T00:12:39;3.93;;;2.00;;
11443;SDS011;5778;47.856;12.154;2023-07-31T00:15:11;1.97;;;1.77;;
11443;SDS011;5778;47.856;12.154;2023-07-31T00:17:41;2.13;;;1.60;;
11443;SDS011;5778;47.856;12.154;2023-07-31T00:20:10;3.40;;;1.90;;
11443;SDS011;5778;47.856;12.154;2023-07-31T00:22:40;3.27;;;1.97;;
11443;SDS011;5778;47.856;12.154;2023-07-31T00:25:11;2.10;;;1.67;;
11443;SDS011;5778;47.856;12.154;2023-07-31T00:27:38;3.77;;;2.10;;
11443;SDS011;5778;47.856;12.154;2023-07-31T00:30:10;3.77;;;1.97;;
11443;SDS011;5778;47.856;12.154;2023-07-31T00:32:41;2.40;;;1.60;;
11443;SDS011;5778;47.856;12.154;2023-07-31T00:35:10;3.67;;;1.97;;
11443;SDS011;5778;47.856;12.154;2023-07-31T00:37:37;2.03;;;1.80;;
11443;SDS011;5778;47.856;12.154;2023-07-31T00:40:07;1.80;;;1.70;;
11443;SDS011;5778;47.856;12.154;2023-07-31T00:42:39;2.80;;;1.90;;
11443;SDS011;5778;47.856;12.154;2023-07-31T00:45:09;3.30;;;2.10;;
11443;SDS011;5778;47.856;12.154;2023-07-31T00:47:36;2.73;;;1.93;;
11443;SDS011;5778;47.856;12.154;2023-07-31T00:50:06;3.17;;;2.13;;
11443;SDS011;5778;47.856;12.154;2023-07-31T00:52:35;3.73;;;2.27;;
11443;SDS011;5778;47.856;12.154;2023-07-31T00:55:05;2.17;;;1.70;;
11443;SDS011;5778;47.856;12.154;2023-07-31T00:57:36;2.00;;;1.73;;
11443;SDS011;5778;47.856;12.154;2023-07-31T01:00:07;2.43;;;1.87;;
11443;SDS011;5778;47.856;12.154;2023-07-31T01:02:35;3.00;;;2.17;;
11443;SDS011;5778;47.856;12.154;2023-07-31T01:05:05;3.23;;;2.00;;
11443;SDS011;5778;47.856;12.154;2023-07-31T01:07:40;2.27;;;1.90;;
11443;SDS011;5778;47.856;12.154;2023-07-31T01:10:21;2.20;;;1.80;;
11443;SDS011;5778;47.856;12.154;2023-07-31T01:12:54;2.40;;;2.00;;
11443;SDS011;5778;47.856;12.154;2023-07-31T01:15:22;2.40;;;1.60;;
11443;SDS011;5778;47.856;12.154;2023-07-31T01:17:49;1.90;;;1.70;;
11443;SDS011;5778;47.856;12.154;2023-07-31T01:20:17;2.40;;;1.80;;
11443;SDS011;5778;47.856;12.154;2023-07-31T01:22:54;2.20;;;2.00;;
11443;SDS011;5778;47.856;12.154;2023-07-31T01:25:59;2.60;;;2.07;;
11443;SDS011;5778;47.856;12.154;2023-07-31T01:28:33;1.93;;;1.83;;
11443;SDS011;5778;47.856;12.154;2023-07-31T01:31:07;1.70;;;1.60;;
11443;SDS011;5778;47.856;12.154;2023-07-31T01:33:38;1.70;;;1.60;;
11443;SDS011;5778;47.856;12.154;2023-07-31T01:36:06;2.00;;;1.90;;
11443;SDS011;5778;47.856;12.154;2023-07-31T01:38:34;2.13;;;1.90;;
11443;SDS011;5778;47.856;12.154;2023-07-31T01:41:02;2.20;;;2.00;;
11443;SDS011;5778;47.856;12.154;2023-07-31T01:43:29;2.23;;;1.77;;
11443;SDS011;5778;47.856;12.154;2023-07-31T01:45:56;3.00;;;1.80;;
11443;SDS011;5778;47.856;12.154;2023-07-31T01:48:23;2.47;;;1.90;;
11443;SDS011;5778;47.856;12.154;2023-07-31T01:50:50;1.90;;;1.80;;
11443;SDS011;5778;47.856;12.154;2023-07-31T01:53:17;3.43;;;1.90;;
11443;SDS011;5778;47.856;12.154;2023-07-31T01:55:44;3.33;;;1.93;;
11443;SDS011;5778;47.856;12.154;2023-07-31T01:58:12;3.60;;;2.00;;
11443;SDS011;5778;47.856;12.154;2023-07-31T02:00:39;4.93;;;2.13;;
11443;SDS011;5778;47.856;12.154;2023-07-31T02:03:06;2.10;;;1.90;;
11443;SDS011;5778;47.856;12.154;2023-07-31T02:05:33;2.60;;;2.00;;
11443;SDS011;5778;47.856;12.154;2023-07-31T02:08:00;2.20;;;1.63;;
11443;SDS011;5778;47.856;12.154;2023-07-31T02:10:28;1.80;;;1.70;;
11443;SDS011;5778;47.856;12.154;2023-07-31T02:12:54;2.47;;;2.00;;
11443;SDS011;5778;47.856;12.154;2023-07-31T02:15:24;2.43;;;2.20;;
11443;SDS011;5778;47.856;12.154;2023-07-31T02:17:51;2.30;;;2.10;;
11443;SDS011;5778;47.856;12.154;2023-07-31T02:20:17;3.53;;;2.10;;
11443;SDS011;5778;47.856;12.154;2023-07-31T02:22:45;2.47;;;2.27;;
11443;SDS011;5778;47.856;12.154;2023-07-31T02:25:12;2.30;;;2.10;;
11443;SDS011;5778;47.856;12.154;2023-07-31T02:27:39;3.93;;;2.40;;
11443;SDS011;5778;47.856;12.154;2023-07-31T02:30:06;3.37;;;2.37;;
11443;SDS011;5778;47.856;12.154;2023-07-31T02:32:35;3.43;;;2.23;;
11443;SDS011;5778;47.856;12.154;2023-07-31T02:35:03;2.27;;;1.93;;
11443;SDS011;5778;47.856;12.154;2023-07-31T02:37:30;2.93;;;2.20;;
11443;SDS011;5778;47.856;12.154;2023-07-31T02:39:57;2.80;;;2.20;;
11443;SDS011;5778;47.856;12.154;2023-07-31T02:42:26;2.30;;;2.03;;
11443;SDS011;5778;47.856;12.154;2023-07-31T02:44:53;2.17;;;1.97;;
11443;SDS011;5778;47.856;12.154;2023-07-31T02:47:21;2.60;;;2.27;;
11443;SDS011;5778;47.856;12.154;2023-07-31T02:49:49;2.07;;;1.87;;
11443;SDS011;5778;47.856;12.154;2023-07-31T02:52:16;2.90;;;2.13;;
11443;SDS011;5778;47.856;12.154;2023-07-31T02:54:43;3.77;;;1.97;;
11443;SDS011;5778;47.856;12.154;2023-07-31T02:57:10;2.33;;;2.00;;
11443;SDS011;5778;47.856;12.154;2023-07-31T02:59:37;2.93;;;2.00;;
11443;SDS011;5778;47.856;12.154;2023-07-31T03:02:04;3.07;;;2.47;;
11443;SDS011;5778;47.856;12.154;2023-07-31T03:04:31;6.47;;;2.50;;
11443;SDS011;5778;47.856;12.154;2023-07-31T03:07:00;4.37;;;2.40;;
11443;SDS011;5778;47.856;12.154;2023-07-31T03:09:27;3.77;;;2.50;;
11443;SDS011;5778;47.856;12.154;2023-07-31T03:11:53;2.67;;;2.37;;
11443;SDS011;5778;47.856;12.154;2023-07-31T03:14:21;2.70;;;2.20;;
11443;SDS011;5778;47.856;12.154;2023-07-31T03:16:48;2.50;;;2.30;;
11443;SDS011;5778;47.856;12.154;2023-07-31T03:19:15;3.20;;;2.70;;
11443;SDS011;5778;47.856;12.154;2023-07-31T03:21:42;3.73;;;2.53;;
11443;SDS011;5778;47.856;12.154;2023-07-31T03:24:10;5.43;;;2.50;;
11443;SDS011;5778;47.856;12.154;2023-07-31T03:26:37;4.33;;;2.50;;
11443;SDS011;5778;47.856;12.154;2023-07-31T03:29:06;3.20;;;2.30;;
11443;SDS011;5778;47.856;12.154;2023-07-31T03:31:33;3.67;;;2.30;;
11443;SDS011;5778;47.856;12.154;2023-07-31T03:34:00;2.50;;;2.30;;
11443;SDS011;5778;47.856;12.154;2023-07-31T03:36:29;3.83;;;2.20;;
11443;SDS011;5778;47.856;12.154;2023-07-31T03:38:56;2.73;;;2.20;;
11443;SDS011;5778;47.856;12.154;2023-07-31T03:41:24;2.27;;;2.07;;
11443;SDS011;5778;47.856;12.154;2023-07-31T03:43:51;3.23;;;1.80;;
11443;SDS011;5778;47.856;12.154;2023-07-31T03:46:21;3.80;;;2.10;;
11443;SDS011;5778;47.856;12.154;2023-07-31T03:48:48;2.40;;;2.20;;
11443;SDS011;5778;47.856;12.154;2023-07-31T03:51:15;2.30;;;1.70;;
11443;SDS011;5778;47.856;12.154;2023-07-31T03:53:43;2.80;;;1.90;;
11443;SDS011;5778;47.856;12.154;2023-07-31T03:56:09;2.53;;;1.83;;
11443;SDS011;5778;47.856;12.154;2023-07-31T03:58:38;2.63;;;2.00;;
11443;SDS011;5778;47.856;12.154;2023-07-31T04:01:05;3.23;;;2.00;;
11443;SDS011;5778;47.856;12.154;2023-07-31T04:03:32;2.20;;;1.87;;
11443;SDS011;5778;47.856;12.154;2023-07-31T04:05:59;3.00;;;2.00;;
11443;SDS011;5778;47.856;12.154;2023-07-31T04:08:26;2.47;;;2.17;;
11443;SDS011;5778;47.856;12.154;2023-07-31T04:10:53;3.23;;;1.90;;
11443;SDS011;5778;47.856;12.154;2023-07-31T04:13:21;2.83;;;1.80;;
11443;SDS011;5778;47.856;12.154;2023-07-31T04:15:50;4.27;;;2.03;;
11443;SDS011;5778;47.856;12.154;2023-07-31T04:18:16;2.30;;;2.10;;
11443;SDS011;5778;47.856;12.154;2023-07-31T04:20:43;5.30;;;2.10;;
11443;SDS011;5778;47.856;12.154;2023-07-31T04:23:10;2.47;;;2.27;;
11443;SDS011;5778;47.856;12.154;2023-07-31T04:25:37;2.00;;;1.80;;
11443;SDS011;5778;47.856;12.154;2023-07-31T04:28:04;6.97;;;2.30;;
11443;SDS011;5778;47.856;12.154;2023-07-31T04:30:30;5.70;;;2.30;;
11443;SDS011;5778;47.856;12.154;2023-07-31T04:32:59;4.33;;;2.20;;
11443;SDS011;5778;47.856;12.154;2023-07-31T04:35:26;6.07;;;2.10;;
11443;SDS011;5778;47.856;12.154;2023-07-31T04:37:53;3.13;;;1.93;;
11443;SDS011;5778;47.856;12.154;2023-07-31T04:40:20;4.20;;;2.23;;
11443;SDS011;5778;47.856;12.154;2023-07-31T04:42:47;4.33;;;1.83;;
11443;SDS011;5778;47.856;12.154;2023-07-31T04:45:14;2.10;;;1.90;;
11443;SDS011;5778;47.856;12.154;2023-07-31T04:47:41;3.80;;;2.03;;
11443;SDS011;5778;47.856;12.154;2023-07-31T04:50:09;3.00;;;2.00;;
11443;SDS011;5778;47.856;12.154;2023-07-31T04:52:36;3.10;;;2.00;;
11443;SDS011;5778;47.856;12.154;2023-07-31T04:55:03;3.40;;;2.17;;
11443;SDS011;5778;47.856;12.154;2023-07-31T04:57:30;2.87;;;1.93;;
11443;SDS011;5778;47.856;12.154;2023-07-31T04:59:57;2.13;;;1.80;;
11443;SDS011;5778;47.856;12.154;2023-07-31T05:02:24;3.20;;;1.70;;
11443;SDS011;5778;47.856;12.154;2023-07-31T05:04:51;3.37;;;2.10;;
11443;SDS011;5778;47.856;12.154;2023-07-31T05:07:19;2.80;;;2.00;;
11443;SDS011;5778;47.856;12.154;2023-07-31T05:09:45;3.77;;;2.13;;
11443;SDS011;5778;47.856;12.154;2023-07-31T05:12:12;2.70;;;1.90;;
11443;SDS011;5778;47.856;12.154;2023-07-31T05:14:39;1.83;;;1.60;;
11443;SDS011;5778;47.856;12.154;2023-07-31T05:17:06;1.77;;;1.67;;
11443;SDS011;5778;47.856;12.154;2023-07-31T05:19:33;3.77;;;2.20;;
11443;SDS011;5778;47.856;12.154;2023-07-31T05:21:59;3.47;;;1.87;;
11443;SDS011;5778;47.856;12.154;2023-07-31T05:24:28;2.57;;;1.77;;
11443;SDS011;5778;47.856;12.154;2023-07-31T05:26:54;5.87;;;1.83;;
11443;SDS011;5778;47.856;12.154;2023-07-31T05:29:21;2.80;;;1.80;;
11443;SDS011;5778;47.856;12.154;2023-07-31T05:31:48;3.20;;;1.90;;
11443;SDS011;5778;47.856;12.154;2023-07-31T05:34:15;2.03;;;1.83;;
11443;SDS011;5778;47.856;12.154;2023-07-31T05:36:42;2.47;;;2.10;;
11443;SDS011;5778;47.856;12.154;2023-07-31T05:39:08;3.03;;;2.10;;
11443;SDS011;5778;47.856;12.154;2023-07-31T05:41:37;3.93;;;2.10;;
11443;SDS011;5778;47.856;12.154;2023-07-31T05:44:03;3.20;;;1.70;;
11443;SDS011;5778;47.856;12.154;2023-07-31T05:46:30;3.77;;;1.63;;
11443;SDS011;5778;47.856;12.154;2023-07-31T05:48:57;3.60;;;1.80;;
11443;SDS011;5778;47.856;12.154;2023-07-31T05:51:26;2.23;;;1.70;;
11443;SDS011;5778;47.856;12.154;2023-07-31T05:53:53;3.87;;;1.63;;
11443;SDS011;5778;47.856;12.154;2023-07-31T05:56:20;1.60;;;1.50;;
11443;SDS011;5778;47.856;12.154;2023-07-31T05:58:49;3.67;;;1.60;;
11443;SDS011;5778;47.856;12.154;2023-07-31T06:01:16;2.87;;;1.60;;
11443;SDS011;5778;47.856;12.154;2023-07-31T06:03:43;3.43;;;1.73;;
11443;SDS011;5778;47.856;12.154;2023-07-31T06:06:10;2.03;;;1.80;;
11443;SDS011;5778;47.856;12.154;2023-07-31T06:08:38;3.40;;;1.47;;
11443;SDS011;5778;47.856;12.154;2023-07-31T06:11:06;2.57;;;1.57;;
11443;SDS011;5778;47.856;12.154;2023-07-31T06:13:34;1.73;;;1.63;;
11443;SDS011;5778;47.856;12.154;2023-07-31T06:16:03;2.73;;;1.80;;
11443;SDS011;5778;47.856;12.154;2023-07-31T06:18:31;2.03;;;1.83;;
11443;SDS011;5778;47.856;12.154;2023-07-31T06:20:58;1.73;;;1.50;;
11443;SDS011;5778;47.856;12.154;2023-07-31T06:23:25;2.73;;;1.80;;
11443;SDS011;5778;47.856;12.154;2023-07-31T06:25:52;4.10;;;2.03;;
11443;SDS011;5778;47.856;12.154;2023-07-31T06:28:19;2.60;;;1.70;;
11443;SDS011;5778;47.856;12.154;2023-07-31T06:30:46;2.47;;;1.47;;
11443;SDS011;5778;47.856;12.154;2023-07-31T06:33:14;2.47;;;1.90;;
11443;SDS011;5778;47.856;12.154;2023-07-31T06:35:41;2.30;;;1.60;;
11443;SDS011;5778;47.856;12.154;2023-07-31T06:38:08;2.40;;;1.63;;
11443;SDS011;5778;47.856;12.154;2023-07-31T06:40:35;2.47;;;1.70;;
11443;SDS011;5778;47.856;12.154;2023-07-31T06:43:01;2.87;;;1.90;;
11443;SDS011;5778;47.856;12.154;2023-07-31T06:45:33;2.57;;;1.83;;
11443;SDS011;5778;47.856;12.154;2023-07-31T06:48:00;2.27;;;1.80;;
11443;SDS011;5778;47.856;12.154;2023-07-31T06:50:28;2.33;;;1.90;;
11443;SDS011;5778;47.856;12.154;2023-07-31T06:52:56;3.03;;;1.80;;
11443;SDS011;5778;47.856;12.154;2023-07-31T06:55:23;4.00;;;1.90;;
11443;SDS011;5778;47.856;12.154;2023-07-31T06:57:51;3.07;;;2.00;;
11443;SDS011;5778;47.856;12.154;2023-07-31T07:00:19;2.30;;;1.70;;
11443;SDS011;5778;47.856;12.154;2023-07-31T07:02:47;2.40;;;1.70;;
11443;SDS011;5778;47.856;12.154;2023-07-31T07:05:14;3.90;;;1.93;;
11443;SDS011;5778;47.856;12.154;2023-07-31T07:07:43;3.50;;;1.67;;
11443;SDS011;5778;47.856;12.154;2023-07-31T07:10:10;1.93;;;1.70;;
11443;SDS011;5778;47.856;12.154;2023-07-31T07:12:37;2.10;;;1.70;;
11443;SDS011;5778;47.856;12.154;2023-07-31T07:15:05;3.60;;;1.80;;
11443;SDS011;5778;47.856;12.154;2023-07-31T07:17:32;4.90;;;1.97;;
11443;SDS011;5778;47.856;12.154;2023-07-31T07:20:00;2.83;;;1.93;;
11443;SDS011;5778;47.856;12.154;2023-07-31T07:22:28;2.13;;;1.80;;
11443;SDS011;5778;47.856;12.154;2023-07-31T07:24:56;2.17;;;1.80;;
11443;SDS011;5778;47.856;12.154;2023-07-31T07:27:23;4.33;;;2.10;;
11443;SDS011;5778;47.856;12.154;2023-07-31T07:29:51;3.13;;;2.03;;
11443;SDS011;5778;47.856;12.154;2023-07-31T07:32:18;3.53;;;2.10;;
11443;SDS011;5778;47.856;12.154;2023-07-31T07:34:46;2.83;;;1.80;;
11443;SDS011;5778;47.856;12.154;2023-07-31T07:37:14;3.53;;;1.70;;
11443;SDS011;5778;47.856;12.154;2023-07-31T07:39:41;1.90;;;1.60;;
11443;SDS011;5778;47.856;12.154;2023-07-31T07:42:09;1.90;;;1.60;;
11443;SDS011;5778;47.856;12.154;2023-07-31T07:44:36;2.70;;;1.90;;
11443;SDS011;5778;47.856;12.154;2023-07-31T07:47:04;3.03;;;1.70;;
11443;SDS011;5778;47.856;12.154;2023-07-31T07:49:32;2.27;;;1.70;;
11443;SDS011;5778;47.856;12.154;2023-07-31T07:52:00;1.97;;;1.60;;
11443;SDS011;5778;47.856;12.154;2023-07-31T07:54:26;3.73;;;1.70;;
11443;SDS011;5778;47.856;12.154;2023-07-31T07:56:53;2.50;;;1.63;;
11443;SDS011;5778;47.856;12.154;2023-07-31T07:59:22;2.73;;;1.80;;
11443;SDS011;5778;47.856;12.154;2023-07-31T08:01:49;1.70;;;1.60;;
11443;SDS011;5778;47.856;12.154;2023-07-31T08:04:16;2.53;;;1.50;;
11443;SDS011;5778;47.856;12.154;2023-07-31T08:06:43;2.60;;;1.60;;
11443;SDS011;5778;47.856;12.154;2023-07-31T08:09:10;2.70;;;1.53;;
11443;SDS011;5778;47.856;12.154;2023-07-31T08:11:37;1.70;;;1.40;;
11443;SDS011;5778;47.856;12.154;2023-07-31T08:14:04;2.03;;;1.37;;
11443;SDS011;5778;47.856;12.154;2023-07-31T08:16:33;1.67;;;1.57;;
11443;SDS011;5778;47.856;12.154;2023-07-31T08:19:00;2.23;;;1.50;;
11443;SDS011;5778;47.856;12.154;2023-07-31T08:21:27;3.17;;;1.20;;
11443;SDS011;5778;47.856;12.154;2023-07-31T08:23:55;3.10;;;1.50;;
11443;SDS011;5778;47.856;12.154;2023-07-31T08:26:22;1.83;;;1.20;;
11443;SDS011;5778;47.856;12.154;2023-07-31T08:28:49;1.37;;;1.20;;
11443;SDS011;5778;47.856;12.154;2023-07-31T08:31:16;1.40;;;1.30;;
11443;SDS011;5778;47.856;12.154;2023-07-31T08:33:45;2.67;;;1.40;;
11443;SDS011;5778;47.856;12.154;2023-07-31T08:36:12;3.23;;;1.40;;
11443;SDS011;5778;47.856;12.154;2023-07-31T08:38:39;2.30;;;1.23;;
11443;SDS011;5778;47.856;12.154;2023-07-31T08:41:06;1.63;;;1.27;;
11443;SDS011;5778;47.856;12.154;2023-07-31T08:43:35;3.37;;;1.50;;
11443;SDS011;5778;47.856;12.154;2023-07-31T08:46:04;1.40;;;1.30;;
11443;SDS011;5778;47.856;12.154;2023-07-31T08:48:31;3.40;;;1.17;;
11443;SDS011;5778;47.856;12.154;2023-07-31T08:51:00;4.20;;;1.50;;
11443;SDS011;5778;47.856;12.154;2023-07-31T08:53:27;1.53;;;1.10;;
11443;SDS011;5778;47.856;12.154;2023-07-31T08:55:54;1.60;;;1.23;;
11443;SDS011;5778;47.856;12.154;2023-07-31T08:58:22;1.40;;;1.30;;
11443;SDS011;5778;47.856;12.154;2023-07-31T09:00:50;2.10;;;1.30;;
11443;SDS011;5778;47.856;12.154;2023-07-31T09:03:18;3.20;;;1.67;;
11443;SDS011;5778;47.856;12.154;2023-07-31T09:05:45;1.37;;;1.20;;
11443;SDS011;5778;47.856;12.154;2023-07-31T09:08:15;2.30;;;1.40;;
11443;SDS011;5778;47.856;12.154;2023-07-31T09:10:45;2.33;;;1.50;;
11443;SDS011;5778;47.856;12.154;2023-07-31T09:13:13;1.93;;;1.47;;
11443;SDS011;5778;47.856;12.154;2023-07-31T09:15:40;3.67;;;1.90;;
11443;SDS011;5778;47.856;12.154;2023-07-31T09:18:09;2.07;;;1.60;;
11443;SDS011;5778;47.856;12.154;2023-07-31T09:20:37;1.80;;;1.50;;
11443;SDS011;5778;47.856;12.154;2023-07-31T09:23:07;1.50;;;1.40;;
11443;SDS011;5778;47.856;12.154;2023-07-31T09:25:37;1.70;;;1.30;;
11443;SDS011;5778;47.856;12.154;2023-07-31T09:28:04;2.23;;;1.43;;
11443;SDS011;5778;47.856;12.154;2023-07-31T09:30:44;1.57;;;1.47;;
11443;SDS011;5778;47.856;12.154;2023-07-31T09:33:13;1.63;;;1.40;;
11443;SDS011;5778;47.856;12.154;2023-07-31T09:35:40;2.47;;;1.53;;
11443;SDS011;5778;47.856;12.154;2023-07-31T09:38:08;1.53;;;1.30;;
11443;SDS011;5778;47.856;12.154;2023-07-31T09:40:39;1.80;;;1.30;;
11443;SDS011;5778;47.856;12.154;2023-07-31T09:43:08;2.70;;;1.50;;
11443;SDS011;5778;47.856;12.154;2023-07-31T09:45:37;1.87;;;1.47;;
11443;SDS011;5778;47.856;12.154;2023-07-31T09:48:06;1.73;;;1.63;;
11443;SDS011;5778;47.856;12.154;2023-07-31T09:50:36;2.30;;;1.40;;
11443;SDS011;5778;47.856;12.154;2023-07-31T09:53:04;1.60;;;1.50;;
11443;SDS011;5778;47.856;12.154;2023-07-31T09:55:31;3.33;;;1.70;;
11443;SDS011;5778;47.856;12.154;2023-07-31T09:58:01;3.73;;;1.50;;
11443;SDS011;5778;47.856;12.154;2023-07-31T10:00:30;1.90;;;1.57;;
11443;SDS011;5778;47.856;12.154;2023-07-31T10:02:58;3.33;;;1.70;;
11443;SDS011;5778;47.856;12.154;2023-07-31T10:05:28;1.80;;;1.50;;
11443;SDS011;5778;47.856;12.154;2023-07-31T10:07:59;2.83;;;1.40;;
11443;SDS011;5778;47.856;12.154;2023-07-31T10:10:26;2.10;;;1.53;;
11443;SDS011;5778;47.856;12.154;2023-07-31T10:12:54;1.50;;;1.40;;
11443;SDS011;5778;47.856;12.154;2023-07-31T10:15:24;2.90;;;1.63;;
11443;SDS011;5778;47.856;12.154;2023-07-31T10:17:52;2.13;;;1.53;;
11443;SDS011;5778;47.856;12.154;2023-07-31T10:20:20;3.80;;;1.43;;
11443;SDS011;5778;47.856;12.154;2023-07-31T10:22:47;1.80;;;1.70;;
11443;SDS011;5778;47.856;12.154;2023-07-31T10:25:15;1.73;;;1.63;;
11443;SDS011;5778;47.856;12.154;2023-07-31T10:27:42;1.60;;;1.40;;
11443;SDS011;5778;47.856;12.154;2023-07-31T10:30:10;1.70;;;1.50;;
11443;SDS011;5778;47.856;12.154;2023-07-31T10:32:40;3.07;;;1.60;;
11443;SDS011;5778;47.856;12.154;2023-07-31T10:35:08;2.50;;;1.50;;
11443;SDS011;5778;47.856;12.154;2023-07-31T10:37:36;2.50;;;1.40;;
11443;SDS011;5778;47.856;12.154;2023-07-31T10:40:05;3.57;;;1.50;;
11443;SDS011;5778;47.856;12.154;2023-07-31T10:42:36;2.17;;;1.50;;
11443;SDS011;5778;47.856;12.154;2023-07-31T10:45:05;1.60;;;1.50;;
11443;SDS011;5778;47.856;12.154;2023-07-31T10:47:39;1.50;;;1.40;;
11443;SDS011;5778;47.856;12.154;2023-07-31T10:50:13;1.93;;;1.40;;
11443;SDS011;5778;47.856;12.154;2023-07-31T10:52:45;1.73;;;1.60;;
11443;SDS011;5778;47.856;12.154;2023-07-31T10:55:15;1.67;;;1.30;;
11443;SDS011;5778;47.856;12.154;2023-07-31T10:57:48;2.53;;;1.53;;
11443;SDS011;5778;47.856;12.154;2023-07-31T11:00:18;2.60;;;1.77;;
11443;SDS011;5778;47.856;12.154;2023-07-31T11:03:04;1.77;;;1.60;;
11443;SDS011;5778;47.856;12.154;2023-07-31T11:05:43;2.17;;;1.50;;
11443;SDS011;5778;47.856;12.154;2023-07-31T11:08:13;1.53;;;1.37;;
11443;SDS011;5778;47.856;12.154;2023-07-31T11:10:41;2.90;;;1.60;;
11443;SDS011;5778;47.856;12.154;2023-07-31T11:13:08;3.23;;;1.67;;
11443;SDS011;5778;47.856;12.154;2023-07-31T11:15:35;1.63;;;1.50;;
11443;SDS011;5778;47.856;12.154;2023-07-31T11:18:04;2.43;;;1.43;;
11443;SDS011;5778;47.856;12.154;2023-07-31T11:20:33;3.63;;;1.60;;
11443;SDS011;5778;47.856;12.154;2023-07-31T11:23:01;2.33;;;1.50;;
11443;SDS011;5778;47.856;12.154;2023-07-31T11:25:29;1.80;;;1.60;;
11443;SDS011;5778;47.856;12.154;2023-07-31T11:27:57;2.50;;;1.67;;
11443;SDS011;5778;47.856;12.154;2023-07-31T11:30:24;2.20;;;1.73;;
11443;SDS011;5778;47.856;12.154;2023-07-31T11:32:51;1.87;;;1.33;;
11443;SDS011;5778;47.856;12.154;2023-07-31T11:35:19;1.50;;;1.40;;
11443;SDS011;5778;47.856;12.154;2023-07-31T11:37:47;1.53;;;1.43;;
11443;SDS011;5778;47.856;12.154;2023-07-31T11:40:14;2.13;;;1.60;;
11443;SDS011;5778;47.856;12.154;2023-07-31T11:42:41;1.63;;;1.47;;
11443;SDS011;5778;47.856;12.154;2023-07-31T11:45:08;3.30;;;2.00;;
11443;SDS011;5778;47.856;12.154;2023-07-31T11:47:37;2.00;;;1.73;;
11443;SDS011;5778;47.856;12.154;2023-07-31T11:50:04;1.50;;;1.40;;
11443;SDS011;5778;47.856;12.154;2023-07-31T11:52:36;2.63;;;1.70;;
11443;SDS011;5778;47.856;12.154;2023-07-31T11:55:07;1.60;;;1.40;;
11443;SDS011;5778;47.856;12.154;2023-07-31T11:57:37;2.30;;;1.60;;
11443;SDS011;5778;47.856;12.154;2023-07-31T12:00:06;2.00;;;1.63;;
11443;SDS011;5778;47.856;12.154;2023-07-31T12:02:36;3.03;;;1.60;;
11443;SDS011;5778;47.856;12.154;2023-07-31T12:05:05;1.83;;;1.40;;
11443;SDS011;5778;47.856;12.154;2023-07-31T12:07:47;2.60;;;1.40;;
11443;SDS011;5778;47.856;12.154;2023-07-31T12:10:26;3.03;;;1.43;;
11443;SDS011;5778;47.856;12.154;2023-07-31T12:13:01;1.60;;;1.50;;
11443;SDS011;5778;47.856;12.154;2023-07-31T12:15:33;1.60;;;1.50;;
11443;SDS011;5778;47.856;12.154;2023-07-31T12:18:04;1.90;;;1.70;;
11443;SDS011;5778;47.856;12.154;2023-07-31T12:20:32;2.10;;;1.90;;
11443;SDS011;5778;47.856;12.154;2023-07-31T12:23:02;1.93;;;1.70;;
11443;SDS011;5778;47.856;12.154;2023-07-31T12:25:32;1.60;;;1.50;;
11443;SDS011;5778;47.856;12.154;2023-07-31T12:28:05;2.17;;;1.80;;
11443;SDS011;5778;47.856;12.154;2023-07-31T12:30:37;1.67;;;1.50;;
11443;SDS011;5778;47.856;12.154;2023-07-31T12:33:04;2.63;;;1.70;;
11443;SDS011;5778;47.856;12.154;2023-07-31T12:35:36;2.27;;;1.80;;
11443;SDS011;5778;47.856;12.154;2023-07-31T12:38:05;2.23;;;1.50;;
11443;SDS011;5778;47.856;12.154;2023-07-31T12:40:32;2.07;;;1.60;;
11443;SDS011;5778;47.856;12.154;2023-07-31T12:43:01;1.50;;;1.40;;
11443;SDS011;5778;47.856;12.154;2023-07-31T12:45:29;2.03;;;1.73;;
11443;SDS011;5778;47.856;12.154;2023-07-31T12:47:56;3.00;;;1.70;;
11443;SDS011;5778;47.856;12.154;2023-07-31T12:50:23;2.10;;;1.90;;
11443;SDS011;5778;47.856;12.154;2023-07-31T12:52:50;1.80;;;1.53;;
11443;SDS011;5778;47.856;12.154;2023-07-31T12:55:19;1.77;;;1.63;;
11443;SDS011;5778;47.856;12.154;2023-07-31T12:57:46;1.60;;;1.50;;
11443;SDS011;5778;47.856;12.154;2023-07-31T13:00:13;1.57;;;1.30;;
11443;SDS011;5778;47.856;12.154;2023-07-31T13:02:40;2.17;;;1.63;;
11443;SDS011;5778;47.856;12.154;2023-07-31T13:05:07;2.03;;;1.50;;
11443;SDS011;5778;47.856;12.154;2023-07-31T13:07:34;1.67;;;1.57;;
11443;SDS011;5778;47.856;12.154;2023-07-31T13:10:01;2.00;;;1.53;;
11443;SDS011;5778;47.856;12.154;2023-07-31T13:12:30;1.60;;;1.50;;
11443;SDS011;5778;47.856;12.154;2023-07-31T13:14:56;1.70;;;1.50;;
11443;SDS011;5778;47.856;12.154;2023-07-31T13:17:23;1.90;;;1.60;;
11443;SDS011;5778;47.856;12.154;2023-07-31T13:19:50;4.93;;;2.20;;
11443;SDS011;5778;47.856;12.154;2023-07-31T13:22:17;2.27;;;1.47;;
11443;SDS011;5778;47.856;12.154;2023-07-31T13:24:44;2.33;;;1.30;;
11443;SDS011;5778;47.856;12.154;2023-07-31T13:27:10;2.83;;;1.60;;
11443;SDS011;5778;47.856;12.154;2023-07-31T13:29:39;2.80;;;1.70;;
11443;SDS011;5778;47.856;12.154;2023-07-31T13:32:06;1.77;;;1.67;;
11443;SDS011;5778;47.856;12.154;2023-07-31T13:34:47;2.20;;;1.50;;
11443;SDS011;5778;47.856;12.154;2023-07-31T13:37:15;1.58;;;1.48;;
11443;SDS011;5778;47.856;12.154;2023-07-31T13:39:43;2.07;;;1.40;;
11443;SDS011;5778;47.856;12.154;2023-07-31T13:42:10;1.87;;;1.63;;
11443;SDS011;5778;47.856;12.154;2023-07-31T13:44:39;1.77;;;1.50;;
11443;SDS011;5778;47.856;12.154;2023-07-31T13:47:06;3.43;;;1.60;;
11443;SDS011;5778;47.856;12.154;2023-07-31T13:49:33;2.13;;;1.60;;
11443;SDS011;5778;47.856;12.154;2023-07-31T13:52:01;2.13;;;1.50;;
11443;SDS011;5778;47.856;12.154;2023-07-31T13:54:28;1.90;;;1.60;;
11443;SDS011;5778;47.856;12.154;2023-07-31T13:56:55;2.10;;;1.50;;
11443;SDS011;5778;47.856;12.154;2023-07-31T13:59:22;1.90;;;1.70;;
11443;SDS011;5778;47.856;12.154;2023-07-31T14:01:50;1.90;;;1.80;;
11443;SDS011;5778;47.856;12.154;2023-07-31T14:04:17;1.83;;;1.50;;
11443;SDS011;5778;47.856;12.154;2023-07-31T14:06:44;1.90;;;1.60;;
11443;SDS011;5778;47.856;12.154;2023-07-31T14:09:13;1.77;;;1.50;;
11443;SDS011;5778;47.856;12.154;2023-07-31T14:11:40;1.60;;;1.45;;
11443;SDS011;5778;47.856;12.154;2023-07-31T14:14:08;3.63;;;1.55;;
11443;SDS011;5778;47.856;12.154;2023-07-31T14:16:35;1.73;;;1.60;;
11443;SDS011;5778;47.856;12.154;2023-07-31T14:19:04;1.67;;;1.55;;
11443;SDS011;5778;47.856;12.154;2023-07-31T14:21:30;1.63;;;1.52;;
11443;SDS011;5778;47.856;12.154;2023-07-31T14:23:57;2.53;;;1.55;;
11443;SDS011;5778;47.856;12.154;2023-07-31T14:26:24;1.70;;;1.60;;
11443;SDS011;5778;47.856;12.154;2023-07-31T14:28:51;1.80;;;1.70;;
11443;SDS011;5778;47.856;12.154;2023-07-31T14:31:18;3.47;;;1.58;;
11443;SDS011;5778;47.856;12.154;2023-07-31T14:33:45;3.63;;;1.80;;
11443;SDS011;5778;47.856;12.154;2023-07-31T14:36:13;2.90;;;1.60;;
11443;SDS011;5778;47.856;12.154;2023-07-31T14:38:40;3.03;;;1.70;;
11443;SDS011;5778;47.856;12.154;2023-07-31T14:41:06;3.22;;;1.80;;
11443;SDS011;5778;47.856;12.154;2023-07-31T14:43:33;2.63;;;1.70;;
11443;SDS011;5778;47.856;12.154;2023-07-31T14:46:00;2.75;;;1.67;;
11443;SDS011;5778;47.856;12.154;2023-07-31T14:48:27;1.90;;;1.67;;
11443;SDS011;5778;47.856;12.154;2023-07-31T14:50:54;1.58;;;1.40;;
11443;SDS011;5778;47.856;12.154;2023-07-31T14:53:22;1.73;;;1.38;;